createdAt,value
2022-12-24T00:01:07.030Z,22.92
2022-12-24T00:03:36.178Z,26.02
2022-12-24T00:06:17.813Z,22.40
2022-12-24T00:08:44.778Z,18.65
2022-12-24T00:11:11.602Z,20.70
2022-12-24T00:13:38.462Z,23.45
2022-12-24T00:16:06.125Z,24.63
2022-12-24T00:18:33.067Z,20.08
2022-12-24T00:21:01.754Z,28.90
2022-12-24T00:23:28.537Z,24.33
2022-12-24T00:25:55.933Z,26.40
2022-12-24T00:28:22.822Z,26.35
2022-12-24T00:30:49.627Z,19.90
2022-12-24T00:33:20.951Z,26.17
2022-12-24T00:35:52.869Z,20.77
2022-12-24T00:38:19.808Z,23.20
2022-12-24T00:40:46.767Z,30.15
2022-12-24T00:43:13.612Z,25.02
2022-12-24T00:45:40.445Z,26.95
2022-12-24T00:48:07.303Z,22.42
2022-12-24T00:50:34.184Z,25.02
2022-12-24T00:53:00.989Z,21.75
2022-12-24T00:55:27.837Z,23.65
2022-12-24T00:57:54.646Z,26.35
2022-12-24T01:00:21.628Z,25.50
2022-12-24T01:02:48.734Z,29.05
2022-12-24T01:05:15.824Z,25.95
2022-12-24T01:07:44.733Z,22.75
2022-12-24T01:10:16.420Z,30.08
2022-12-24T01:12:44.179Z,29.08
2022-12-24T01:15:13.737Z,28.73
2022-12-24T01:17:41.106Z,33.75
2022-12-24T01:20:13.728Z,23.92
2022-12-24T01:22:40.549Z,26.10
2022-12-24T01:25:08.112Z,22.88
2022-12-24T01:27:35.001Z,23.83
2022-12-24T01:30:01.995Z,23.33
2022-12-24T01:32:28.830Z,28.52
2022-12-24T01:34:55.721Z,30.58
2022-12-24T01:37:22.539Z,30.90
2022-12-24T01:39:49.408Z,24.55
2022-12-24T01:42:42.594Z,24.98
2022-12-24T01:45:37.128Z,19.67
2022-12-24T01:48:05.449Z,22.83
2022-12-24T01:50:32.385Z,24.17
2022-12-24T01:52:59.484Z,21.50
2022-12-24T01:55:26.748Z,28.25
2022-12-24T01:57:57.973Z,31.25
2022-12-24T02:00:25.001Z,23.23
2022-12-24T02:02:54.442Z,27.30
2022-12-24T02:05:32.560Z,24.83
2022-12-24T02:08:02.512Z,27.42
2022-12-24T02:10:29.474Z,20.55
2022-12-24T02:12:59.617Z,26.70
2022-12-24T02:15:38.341Z,29.27
2022-12-24T02:18:49.246Z,24.00
2022-12-24T02:21:51.113Z,34.42
2022-12-24T02:24:38.927Z,33.45
2022-12-24T02:27:34.713Z,29.70
2022-12-24T02:30:20.713Z,34.28
2022-12-24T02:33:07.746Z,32.88
2022-12-24T02:35:46.475Z,25.20
2022-12-24T02:38:25.749Z,25.33
2022-12-24T02:41:01.879Z,32.22
2022-12-24T02:43:41.359Z,27.88
2022-12-24T02:46:20.951Z,31.80
2022-12-24T02:48:50.001Z,25.88
2022-12-24T02:51:23.032Z,23.65
2022-12-24T02:53:49.991Z,28.73
2022-12-24T02:56:53.004Z,24.48
2022-12-24T02:59:40.655Z,26.88
2022-12-24T03:02:47.516Z,28.55
2022-12-24T03:05:51.543Z,27.35
2022-12-24T03:08:54.517Z,25.27
2022-12-24T03:11:21.584Z,28.83
2022-12-24T03:13:50.040Z,24.88
2022-12-24T03:16:24.166Z,18.73
2022-12-24T03:18:54.892Z,24.30
2022-12-24T03:21:33.427Z,31.00
2022-12-24T03:24:00.910Z,25.42
2022-12-24T03:26:30.693Z,22.75
2022-12-24T03:28:57.677Z,31.30
2022-12-24T03:31:24.828Z,26.95
2022-12-24T03:33:51.937Z,25.52
2022-12-24T03:36:18.834Z,31.15
2022-12-24T03:38:45.656Z,34.08
2022-12-24T03:41:12.492Z,27.13
2022-12-24T03:43:39.412Z,28.17
2022-12-24T03:46:08.390Z,26.70
2022-12-24T03:48:35.916Z,25.13
2022-12-24T03:51:04.481Z,30.70
2022-12-24T03:53:31.498Z,25.70
2022-12-24T03:55:58.846Z,32.05
2022-12-24T03:58:26.387Z,40.58
2022-12-24T04:00:54.205Z,30.60
2022-12-24T04:03:21.260Z,27.42
2022-12-24T04:05:48.490Z,35.17
2022-12-24T04:08:15.516Z,25.67
2022-12-24T04:10:42.310Z,35.10
2022-12-24T04:13:09.104Z,37.75
2022-12-24T04:15:35.879Z,36.33
2022-12-24T04:18:02.688Z,27.38
2022-12-24T04:20:29.527Z,29.33
2022-12-24T04:22:56.283Z,31.45
2022-12-24T04:25:23.089Z,34.22
2022-12-24T04:27:49.843Z,30.95
2022-12-24T04:30:16.794Z,33.38
2022-12-24T04:32:43.684Z,29.55
2022-12-24T04:35:10.562Z,26.45
2022-12-24T04:37:37.345Z,27.77
2022-12-24T04:40:04.969Z,28.48
2022-12-24T04:42:31.796Z,31.08
2022-12-24T04:44:58.593Z,26.73
2022-12-24T04:47:25.388Z,28.80
2022-12-24T04:49:52.235Z,21.65
2022-12-24T04:52:19.039Z,28.52
2022-12-24T04:54:45.892Z,28.17
2022-12-24T04:57:12.725Z,24.75
2022-12-24T04:59:39.538Z,29.45
2022-12-24T05:02:06.544Z,32.17
2022-12-24T05:04:33.541Z,27.35
2022-12-24T05:07:00.407Z,32.67
2022-12-24T05:09:27.281Z,25.55
2022-12-24T05:11:54.103Z,30.23
2022-12-24T05:14:20.957Z,21.13
2022-12-24T05:16:48.206Z,24.05
2022-12-24T05:19:16.123Z,24.15
2022-12-24T05:21:43.104Z,27.08
2022-12-24T05:24:30.059Z,23.80
2022-12-24T05:26:58.811Z,23.75
2022-12-24T05:29:25.701Z,23.17
2022-12-24T05:31:52.708Z,24.00
2022-12-24T05:34:19.577Z,26.08
2022-12-24T05:36:46.512Z,28.75
2022-12-24T05:39:18.313Z,28.83
2022-12-24T05:41:46.041Z,23.00
2022-12-24T05:44:13.529Z,22.80
2022-12-24T05:46:40.604Z,28.02
2022-12-24T05:49:07.729Z,27.48
2022-12-24T05:51:34.949Z,27.38
2022-12-24T05:54:01.840Z,26.65
2022-12-24T05:56:28.895Z,26.70
2022-12-24T05:58:56.129Z,26.30
2022-12-24T06:01:23.614Z,25.95
2022-12-24T06:03:52.091Z,30.13
2022-12-24T06:06:25.806Z,28.33
2022-12-24T06:08:54.813Z,31.42
2022-12-24T06:11:25.852Z,30.73
2022-12-24T06:13:54.105Z,32.67
2022-12-24T06:16:23.238Z,40.45
2022-12-24T06:18:50.837Z,35.63
2022-12-24T06:21:18.729Z,29.67
2022-12-24T06:23:46.788Z,29.48
2022-12-24T06:26:19.187Z,33.58
2022-12-24T06:28:48.103Z,37.97
2022-12-24T06:31:18.850Z,38.03
2022-12-24T06:33:45.742Z,42.60
2022-12-24T06:36:24.212Z,29.25
2022-12-24T06:38:52.783Z,32.55
2022-12-24T06:41:20.895Z,35.40
2022-12-24T06:43:51.668Z,29.20
2022-12-24T06:46:19.630Z,30.25
2022-12-24T06:48:47.963Z,39.25
2022-12-24T06:51:19.526Z,36.28
2022-12-24T06:53:47.051Z,42.53
2022-12-24T06:56:14.532Z,42.03
2022-12-24T06:58:41.659Z,45.20
2022-12-24T07:01:13.699Z,34.35
2022-12-24T07:03:41.520Z,33.92
2022-12-24T07:06:18.171Z,39.53
2022-12-24T07:08:45.194Z,41.60
2022-12-24T07:11:12.008Z,45.25
2022-12-24T07:13:38.965Z,39.08
2022-12-24T07:16:06.136Z,33.00
2022-12-24T07:18:33.294Z,41.70
2022-12-24T07:21:01.033Z,36.55
2022-12-24T07:23:27.953Z,47.67
2022-12-24T07:25:54.794Z,33.47
2022-12-24T07:28:27.567Z,43.80
2022-12-24T07:30:59.088Z,33.17
2022-12-24T07:33:27.132Z,40.63
2022-12-24T07:36:06.947Z,34.55
2022-12-24T07:38:35.432Z,31.88
2022-12-24T07:41:02.591Z,35.88
2022-12-24T07:43:29.644Z,35.53
2022-12-24T07:45:58.485Z,40.42
2022-12-24T07:48:28.273Z,31.55
2022-12-24T07:50:57.541Z,36.50
2022-12-24T07:53:26.629Z,26.33
2022-12-24T07:55:54.301Z,35.20
2022-12-24T07:58:22.369Z,29.10
2022-12-24T08:00:49.592Z,40.10
2022-12-24T08:03:20.294Z,32.95
2022-12-24T08:05:48.232Z,33.53
2022-12-24T08:08:15.203Z,35.33
2022-12-24T08:10:43.780Z,31.90
2022-12-24T08:13:10.658Z,29.05
2022-12-24T08:15:37.524Z,33.22
2022-12-24T08:18:04.764Z,37.25
2022-12-24T08:20:31.865Z,37.70
2022-12-24T08:22:58.595Z,30.90
2022-12-24T08:25:25.491Z,32.63
2022-12-24T08:27:52.274Z,37.22
2022-12-24T08:30:21.218Z,29.60
2022-12-24T08:32:49.083Z,38.97
2022-12-24T08:35:16.170Z,38.08
2022-12-24T08:37:42.985Z,34.10
2022-12-24T08:40:10.765Z,38.70
2022-12-24T08:42:37.808Z,41.42
2022-12-24T08:45:05.354Z,37.00
2022-12-24T08:47:32.189Z,27.70
2022-12-24T08:49:59.106Z,37.13
2022-12-24T08:52:25.903Z,32.10
2022-12-24T08:54:52.681Z,44.00
2022-12-24T08:57:20.215Z,37.17
2022-12-24T08:59:47.104Z,26.60
2022-12-24T09:02:14.149Z,33.80
2022-12-24T09:04:41.255Z,40.33
2022-12-24T09:07:09.766Z,33.13
2022-12-24T09:09:38.293Z,39.15
2022-12-24T09:12:09.935Z,35.00
2022-12-24T09:14:36.899Z,32.40
2022-12-24T09:17:03.855Z,30.52
2022-12-24T09:19:30.998Z,37.38
2022-12-24T09:21:57.781Z,29.30
2022-12-24T09:24:24.782Z,38.58
2022-12-24T09:26:57.531Z,34.45
2022-12-24T09:29:25.550Z,32.85
2022-12-24T09:31:52.673Z,41.35
2022-12-24T09:34:20.939Z,34.75
2022-12-24T09:36:51.707Z,29.95
2022-12-24T09:39:18.520Z,28.65
2022-12-24T09:42:07.081Z,33.78
2022-12-24T09:44:41.236Z,27.20
2022-12-24T09:47:31.906Z,33.90
2022-12-24T09:50:03.282Z,27.70
2022-12-24T09:52:38.882Z,33.78
2022-12-24T09:55:22.970Z,28.45
2022-12-24T09:57:54.554Z,23.73
2022-12-24T10:00:27.466Z,29.65
2022-12-24T10:02:54.692Z,22.70
2022-12-24T10:05:41.527Z,34.38
2022-12-24T10:08:23.762Z,33.10
2022-12-24T10:11:00.622Z,31.10
2022-12-24T10:13:54.788Z,23.30
2022-12-24T10:16:59.878Z,29.10
2022-12-24T10:19:59.680Z,28.65
2022-12-24T10:23:35.356Z,29.65
2022-12-24T10:26:12.644Z,28.77
2022-12-24T10:28:58.383Z,31.10
2022-12-24T10:31:43.796Z,26.77
2022-12-24T10:34:24.419Z,27.10
2022-12-24T10:36:51.790Z,25.95
2022-12-24T10:39:25.686Z,27.15
2022-12-24T10:41:59.974Z,33.65
2022-12-24T10:44:31.713Z,23.10
2022-12-24T10:46:59.454Z,30.83
2022-12-24T10:49:52.910Z,29.60
2022-12-24T10:52:25.898Z,24.92
2022-12-24T10:55:24.043Z,30.67
2022-12-24T10:58:05.158Z,28.95
2022-12-24T11:00:36.218Z,28.15
2022-12-24T11:03:12.108Z,26.50
2022-12-24T11:05:40.640Z,23.77
2022-12-24T11:08:18.169Z,26.45
2022-12-24T11:10:57.603Z,27.60
2022-12-24T11:13:37.453Z,23.08
2022-12-24T11:16:18.619Z,23.30
2022-12-24T11:18:51.923Z,28.10
2022-12-24T11:21:30.386Z,30.02
2022-12-24T11:24:04.026Z,26.58
2022-12-24T11:26:31.610Z,24.40
2022-12-24T11:29:20.248Z,30.20
2022-12-24T11:31:49.768Z,28.98
2022-12-24T11:34:31.652Z,27.30
2022-12-24T11:37:28.042Z,20.42
2022-12-24T11:40:00.397Z,17.90
2022-12-24T11:42:38.953Z,24.08
2022-12-24T11:45:27.357Z,16.83
2022-12-24T11:47:56.358Z,24.50
2022-12-24T11:50:36.342Z,25.85
2022-12-24T11:53:03.028Z,17.75
2022-12-24T11:55:48.671Z,21.15
2022-12-24T11:58:52.497Z,17.88
2022-12-24T12:01:25.825Z,20.00
2022-12-24T12:03:59.912Z,20.80
2022-12-24T12:06:48.937Z,26.63
2022-12-24T12:09:28.913Z,13.60
2022-12-24T12:12:07.209Z,18.23
2022-12-24T12:14:44.957Z,14.93
2022-12-24T12:17:36.244Z,17.20
2022-12-24T12:20:32.418Z,17.13
2022-12-24T12:23:17.003Z,22.48
2022-12-24T12:25:55.378Z,19.20
2022-12-24T12:28:32.460Z,22.58
2022-12-24T12:31:23.795Z,18.48
2022-12-24T12:34:22.836Z,22.98
2022-12-24T12:36:57.496Z,23.50
2022-12-24T12:39:24.469Z,19.30
2022-12-24T12:41:53.950Z,21.20
2022-12-24T12:44:48.775Z,23.15
2022-12-24T12:47:37.132Z,22.25
2022-12-24T12:50:29.317Z,23.30
2022-12-24T12:53:36.500Z,17.73
2022-12-24T12:56:26.573Z,21.77
2022-12-24T12:59:01.143Z,19.02
2022-12-24T13:01:54.949Z,16.35
2022-12-24T13:05:15.242Z,19.52
2022-12-24T13:08:06.170Z,17.45
2022-12-24T13:10:42.084Z,24.05
2022-12-24T13:13:49.825Z,18.52
2022-12-24T13:17:01.399Z,27.83
2022-12-24T13:19:59.182Z,17.73
2022-12-24T13:22:26.069Z,17.50
2022-12-24T13:24:55.937Z,28.23
2022-12-24T13:27:33.104Z,16.92
2022-12-24T13:30:36.540Z,16.63
2022-12-24T13:33:04.431Z,19.65
2022-12-24T13:35:38.004Z,21.48
2022-12-24T13:38:26.789Z,18.40
2022-12-24T13:41:38.169Z,22.63
2022-12-24T13:44:12.794Z,23.23
2022-12-24T13:47:12.941Z,17.48
2022-12-24T13:49:44.358Z,20.45
2022-12-24T13:52:11.204Z,22.63
2022-12-24T13:54:42.264Z,18.60
2022-12-24T13:57:38.665Z,19.60
2022-12-24T14:00:25.818Z,15.88
2022-12-24T14:03:14.806Z,22.73
2022-12-24T14:05:44.692Z,20.60
2022-12-24T14:08:27.259Z,23.80
2022-12-24T14:11:18.419Z,22.45
2022-12-24T14:13:48.013Z,20.80
2022-12-24T14:16:41.183Z,16.75
2022-12-24T14:19:19.894Z,15.98
2022-12-24T14:21:57.975Z,26.67
2022-12-24T14:24:37.553Z,24.92
2022-12-24T14:27:29.061Z,20.20
2022-12-24T14:30:08.966Z,22.15
2022-12-24T14:32:39.330Z,19.92
2022-12-24T14:35:29.474Z,28.17
2022-12-24T14:38:06.164Z,26.25
2022-12-24T14:40:53.092Z,25.20
2022-12-24T14:43:58.477Z,21.60
2022-12-24T14:46:44.936Z,26.00
2022-12-24T14:49:25.901Z,23.80
2022-12-24T14:52:54.140Z,23.65
2022-12-24T14:55:46.262Z,27.52
2022-12-24T14:58:32.938Z,22.02
2022-12-24T15:01:24.442Z,31.58
2022-12-24T15:04:20.499Z,20.10
2022-12-24T15:06:57.616Z,19.00
2022-12-24T15:09:29.340Z,25.10
2022-12-24T15:12:03.259Z,31.70
2022-12-24T15:14:40.454Z,22.98
2022-12-24T15:17:08.366Z,28.67
2022-12-24T15:19:42.264Z,18.65
2022-12-24T15:22:31.240Z,19.70
2022-12-24T15:24:58.320Z,21.45
2022-12-24T15:27:27.658Z,29.13
2022-12-24T15:29:57.658Z,21.42
2022-12-24T15:32:24.928Z,21.70
2022-12-24T15:34:55.952Z,18.30
2022-12-24T15:37:26.073Z,23.27
2022-12-24T15:40:11.007Z,24.23
2022-12-24T15:42:43.651Z,22.52
2022-12-24T15:45:21.730Z,24.50
2022-12-24T15:48:01.498Z,27.73
2022-12-24T15:50:32.500Z,26.23
2022-12-24T15:53:19.813Z,28.75
2022-12-24T15:56:14.031Z,23.60
2022-12-24T15:58:44.644Z,22.75
2022-12-24T16:01:17.185Z,23.75
2022-12-24T16:03:50.468Z,23.58
2022-12-24T16:06:17.847Z,24.80
2022-12-24T16:08:46.275Z,25.42
2022-12-24T16:11:23.558Z,25.60
2022-12-24T16:14:20.176Z,26.15
2022-12-24T16:16:50.273Z,19.00
2022-12-24T16:19:36.051Z,31.02
2022-12-24T16:22:26.688Z,35.00
2022-12-24T16:24:55.569Z,28.73
2022-12-24T16:27:22.701Z,24.45
2022-12-24T16:29:50.175Z,27.55
2022-12-24T16:32:38.003Z,27.92
2022-12-24T16:35:17.258Z,22.60
2022-12-24T16:37:44.112Z,27.38
2022-12-24T16:40:19.319Z,22.05
2022-12-24T16:43:06.211Z,21.50
2022-12-24T16:45:37.216Z,23.38
2022-12-24T16:48:07.328Z,21.58
2022-12-24T16:50:35.728Z,22.13
2022-12-24T16:53:02.657Z,26.55
2022-12-24T16:55:29.863Z,21.58
2022-12-24T16:57:56.867Z,19.58
2022-12-24T17:00:25.496Z,21.92
2022-12-24T17:02:53.454Z,24.08
2022-12-24T17:05:23.690Z,31.38
2022-12-24T17:07:51.393Z,22.90
2022-12-24T17:10:18.406Z,21.42
2022-12-24T17:12:45.325Z,27.92
2022-12-24T17:15:12.597Z,20.38
2022-12-24T17:17:39.532Z,25.60
2022-12-24T17:20:07.838Z,23.02
2022-12-24T17:22:36.166Z,21.85
2022-12-24T17:25:04.278Z,20.52
2022-12-24T17:27:31.177Z,25.17
2022-12-24T17:29:58.164Z,18.75
2022-12-24T17:32:28.303Z,20.77
2022-12-24T17:34:55.223Z,23.35
2022-12-24T17:37:22.117Z,28.02
2022-12-24T17:39:48.885Z,20.80
2022-12-24T17:42:15.711Z,19.55
2022-12-24T17:44:42.526Z,21.95
2022-12-24T17:47:09.406Z,23.80
2022-12-24T17:49:36.445Z,22.10
2022-12-24T17:52:04.757Z,37.17
2022-12-24T17:54:32.180Z,29.85
2022-12-24T17:56:59.194Z,37.50
2022-12-24T17:59:26.239Z,38.60
2022-12-24T18:01:53.126Z,35.03
2022-12-24T18:04:20.051Z,36.53
2022-12-24T18:06:49.580Z,38.13
2022-12-24T18:09:17.070Z,36.78
2022-12-24T18:11:44.114Z,31.65
2022-12-24T18:14:13.959Z,32.13
2022-12-24T18:16:41.858Z,37.17
2022-12-24T18:19:12.632Z,37.22
2022-12-24T18:21:40.618Z,30.42
2022-12-24T18:24:09.092Z,21.85
2022-12-24T18:26:36.087Z,23.50
2022-12-24T18:29:08.732Z,19.15
2022-12-24T18:31:36.505Z,21.02
2022-12-24T18:34:07.760Z,25.42
2022-12-24T18:36:35.871Z,25.90
2022-12-24T18:39:03.590Z,30.05
2022-12-24T18:41:31.239Z,23.35
2022-12-24T18:44:00.202Z,29.75
2022-12-24T18:46:32.212Z,25.80
2022-12-24T18:49:00.983Z,28.98
2022-12-24T18:51:34.177Z,31.10
2022-12-24T18:54:02.657Z,28.30
2022-12-24T18:56:29.987Z,30.33
2022-12-24T18:59:00.606Z,35.92
2022-12-24T19:01:35.568Z,32.13
2022-12-24T19:04:03.107Z,34.05
2022-12-24T19:06:29.997Z,32.40
2022-12-24T19:09:00.140Z,29.85
2022-12-24T19:11:31.505Z,37.03
2022-12-24T19:13:58.675Z,27.48
2022-12-24T19:16:26.207Z,27.50
2022-12-24T19:18:53.280Z,30.95
2022-12-24T19:21:20.506Z,32.63
2022-12-24T19:23:48.085Z,30.05
2022-12-24T19:26:18.039Z,31.55
2022-12-24T19:28:46.127Z,28.85
2022-12-24T19:31:17.436Z,34.45
2022-12-24T19:33:51.496Z,30.92
2022-12-24T19:36:23.609Z,28.42
2022-12-24T19:38:50.788Z,29.95
2022-12-24T19:41:21.430Z,35.47
2022-12-24T19:43:51.734Z,31.52
2022-12-24T19:46:25.406Z,31.67
2022-12-24T19:48:57.023Z,33.63
2022-12-24T19:51:26.607Z,28.75
2022-12-24T19:53:58.753Z,32.50
2022-12-24T19:56:29.615Z,23.25
2022-12-24T19:58:58.325Z,26.98
2022-12-24T20:01:33.397Z,27.65
2022-12-24T20:04:01.630Z,22.80
2022-12-24T20:06:33.920Z,35.75
2022-12-24T20:09:07.266Z,26.75
2022-12-24T20:11:35.379Z,26.88
2022-12-24T20:14:04.078Z,30.00
2022-12-24T20:16:31.910Z,25.50
2022-12-24T20:19:03.493Z,25.40
2022-12-24T20:21:31.756Z,33.53
2022-12-24T20:23:58.866Z,33.33
2022-12-24T20:26:29.253Z,31.58
2022-12-24T20:28:56.456Z,32.45
2022-12-24T20:31:29.270Z,34.15
2022-12-24T20:33:58.348Z,36.10
2022-12-24T20:36:27.138Z,31.30
2022-12-24T20:38:55.013Z,30.20
2022-12-24T20:41:24.508Z,35.17
2022-12-24T20:43:51.705Z,30.95
2022-12-24T20:46:22.200Z,29.77
2022-12-24T20:48:50.270Z,31.67
2022-12-24T20:51:24.638Z,30.65
2022-12-24T20:53:55.065Z,28.83
2022-12-24T20:56:22.181Z,30.80
2022-12-24T20:58:49.321Z,27.27
2022-12-24T21:01:21.083Z,37.15
2022-12-24T21:03:48.093Z,32.78
2022-12-24T21:06:17.600Z,38.70
2022-12-24T21:08:49.627Z,34.53
2022-12-24T21:11:34.880Z,37.67
2022-12-24T21:14:02.245Z,30.42
2022-12-24T21:16:34.471Z,32.65
2022-12-24T21:19:01.927Z,33.97
2022-12-24T21:21:29.670Z,35.13
2022-12-24T21:23:57.131Z,36.70
2022-12-24T21:26:24.114Z,30.00
2022-12-24T21:28:50.886Z,27.15
2022-12-24T21:31:18.196Z,33.28
2022-12-24T21:33:45.581Z,32.08
2022-12-24T21:36:14.253Z,32.30
2022-12-24T21:38:41.913Z,31.30
2022-12-24T21:41:18.351Z,28.40
2022-12-24T21:43:46.092Z,31.17
2022-12-24T21:46:19.217Z,26.73
2022-12-24T21:49:04.841Z,30.92
2022-12-24T21:51:32.427Z,30.13
2022-12-24T21:54:18.592Z,31.58
2022-12-24T21:57:04.093Z,27.52
2022-12-24T21:59:31.082Z,27.20
2022-12-24T22:01:58.681Z,26.05
2022-12-24T22:04:26.199Z,30.77
2022-12-24T22:07:11.983Z,27.38
2022-12-24T22:09:58.474Z,31.08
2022-12-24T22:12:29.784Z,27.15
2022-12-24T22:14:56.655Z,27.23
2022-12-24T22:17:25.787Z,31.38
2022-12-24T22:19:54.379Z,54.45
2022-12-24T22:22:22.089Z,33.42
2022-12-24T22:24:48.899Z,29.85
2022-12-24T22:27:15.816Z,25.63
2022-12-24T22:29:42.641Z,29.45
2022-12-24T22:32:09.743Z,31.52
2022-12-24T22:34:36.643Z,30.75
2022-12-24T22:37:03.556Z,28.63
2022-12-24T22:39:30.555Z,27.50
2022-12-24T22:41:58.110Z,26.70
2022-12-24T22:44:25.350Z,25.88
2022-12-24T22:46:52.171Z,30.42
2022-12-24T22:49:18.935Z,25.05
2022-12-24T22:51:45.816Z,29.65
2022-12-24T22:54:12.707Z,28.05
2022-12-24T22:56:41.609Z,30.20
2022-12-24T22:59:13.393Z,27.30
2022-12-24T23:01:44.717Z,30.48
2022-12-24T23:04:12.640Z,30.08
2022-12-24T23:06:40.419Z,30.20
2022-12-24T23:09:10.993Z,31.42
2022-12-24T23:11:39.484Z,22.52
2022-12-24T23:14:25.507Z,29.02
2022-12-24T23:16:52.313Z,27.30
2022-12-24T23:19:19.110Z,24.63
2022-12-24T23:21:45.951Z,31.05
2022-12-24T23:24:12.985Z,26.25
2022-12-24T23:26:40.302Z,29.88
2022-12-24T23:29:07.081Z,30.42
2022-12-24T23:31:34.745Z,27.52
2022-12-24T23:34:02.142Z,26.05
2022-12-24T23:36:29.486Z,25.23
2022-12-24T23:38:57.462Z,26.08
2022-12-24T23:41:24.301Z,25.27
2022-12-24T23:43:51.402Z,25.83
2022-12-24T23:46:20.317Z,30.38
2022-12-24T23:48:48.809Z,23.75
2022-12-24T23:51:19.638Z,24.80
2022-12-24T23:53:46.581Z,21.52
2022-12-24T23:56:13.884Z,25.33
2022-12-24T23:58:42.444Z,31.75
